Time,TemperatureF,DewpointF,PressureIn,WindDirection,WindDirectionDegrees,WindSpeedMPH,WindSpeedGustMPH,Humidity,HourlyPrecipIn,Conditions,Clouds,dailyrainin,SoftwareType,DateUTC
2013-05-03 00:01:00,59.4,50.3,29.93,North,10,3.1,3.1,72,0.00,,,0.00,VWS V14.00,2013-05-03 04:01:00,
2013-05-03 00:02:00,59.4,50.3,29.93,NNE,13,4.0,4.0,72,0.00,,,0.00,VWS V14.00,2013-05-03 04:02:00,
2013-05-03 00:07:00,59.4,50.3,29.93,NNE,13,2.7,2.7,72,0.00,,,0.00,VWS V14.00,2013-05-03 04:07:00,
2013-05-03 00:12:00,59.4,50.3,29.93,North,11,3.1,3.1,72,0.00,,,0.00,VWS V14.00,2013-05-03 04:12:00,
2013-05-03 00:17:00,58.8,50.2,29.93,NNE,16,0.0,2.7,73,0.00,,,0.00,VWS V14.00,2013-05-03 04:17:00,
2013-05-03 00:18:00,58.8,50.6,29.93,NNE,16,0.0,0.0,74,0.00,,,0.00,VWS V14.00,2013-05-03 04:18:00,
2013-05-03 00:23:00,58.8,50.6,29.93,NNE,13,3.6,3.6,74,0.00,,,0.00,VWS V14.00,2013-05-03 04:23:00,
2013-05-03 00:28:00,58.5,50.2,29.93,North,7,4.0,4.0,74,0.00,,,0.00,VWS V14.00,2013-05-03 04:28:00,
2013-05-03 00:33:00,58.5,50.2,29.93,North,7,0.0,4.0,74,0.00,,,0.00,VWS V14.00,2013-05-03 04:33:00,
2013-05-03 00:38:00,58.3,50.4,29.93,North,3,2.2,2.2,75,0.00,,,0.00,VWS V14.00,2013-05-03 04:38:00,
2013-05-03 00:44:00,58.1,50.2,29.93,NNW,328,0.0,0.0,75,0.00,,,0.00,VWS V14.00,2013-05-03 04:44:00,
2013-05-03 00:50:00,57.9,50.0,29.90,NNW,328,2.2,2.2,75,0.00,,,0.00,VWS V14.00,2013-05-03 04:50:00,
2013-05-03 00:55:00,57.9,50.4,29.90,NNE,15,3.6,3.6,76,0.00,,,0.00,VWS V14.00,2013-05-03 04:55:00,
2013-05-03 01:02:00,57.6,50.1,29.90,NNE,12,4.0,4.0,76,0.00,,,0.00,VWS V14.00,2013-05-03 05:02:00,
2013-05-03 01:07:00,57.4,50.2,29.90,NNE,12,0.0,0.0,77,0.00,,,0.00,VWS V14.00,2013-05-03 05:07:00,
2013-05-03 01:13:00,57.4,50.2,29.90,NNE,17,3.6,3.6,77,0.00,,,0.00,VWS V14.00,2013-05-03 05:13:00,
2013-05-03 01:18:00,57.2,50.1,29.90,NNE,16,4.0,4.0,77,0.00,,,0.00,VWS V14.00,2013-05-03 05:18:00,
2013-05-03 01:23:00,57.0,50.2,29.90,NNE,15,0.0,2.2,78,0.00,,,0.00,VWS V14.00,2013-05-03 05:23:00,
2013-05-03 01:29:00,57.0,50.6,29.90,NNW,340,3.1,3.1,79,0.00,,,0.00,VWS V14.00,2013-05-03 05:29:00,
2013-05-03 01:35:00,56.7,50.2,29.90,NNW,341,0.0,0.0,79,0.00,,,0.00,VWS V14.00,2013-05-03 05:35:00,
2013-05-03 01:40:00,56.7,50.2,29.90,NNW,340,0.0,0.0,79,0.00,,,0.00,VWS V14.00,2013-05-03 05:40:00,
2013-05-03 01:45:00,56.5,50.1,29.90,NNW,341,0.0,0.0,79,0.00,,,0.00,VWS V14.00,2013-05-03 05:45:00,
2013-05-03 01:50:00,56.3,50.2,29.90,NNW,341,0.0,0.0,80,0.00,,,0.00,VWS V14.00,2013-05-03 05:50:00,
2013-05-03 01:56:00,56.3,50.2,29.90,NNW,340,2.2,2.2,80,0.00,,,0.00,VWS V14.00,2013-05-03 05:56:00,
2013-05-03 02:01:00,55.9,49.9,29.90,NNW,341,0.0,0.0,80,0.00,,,0.00,VWS V14.00,2013-05-03 06:01:00,
2013-05-03 02:07:00,55.6,49.5,29.90,NNW,341,0.0,0.0,80,0.00,,,0.00,VWS V14.00,2013-05-03 06:07:00,
2013-05-03 02:12:00,55.4,49.3,29.90,NNW,340,0.0,0.0,80,0.00,,,0.00,VWS V14.00,2013-05-03 06:12:00,
2013-05-03 02:18:00,55.2,49.2,29.90,NNW,340,0.0,0.0,80,0.00,,,0.00,VWS V14.00,2013-05-03 06:18:00,
2013-05-03 02:23:00,55.0,49.0,29.90,NNW,341,3.1,3.1,80,0.00,,,0.00,VWS V14.00,2013-05-03 06:23:00,
2013-05-03 02:28:00,54.9,49.2,29.90,NNW,341,0.0,0.0,81,0.00,,,0.00,VWS V14.00,2013-05-03 06:28:00,
2013-05-03 02:33:00,54.9,49.2,29.87,NNW,344,0.0,2.2,81,0.00,,,0.00,VWS V14.00,2013-05-03 06:33:00,
2013-05-03 02:39:00,54.7,49.0,29.87,NNW,344,0.0,0.0,81,0.00,,,0.00,VWS V14.00,2013-05-03 06:39:00,
2013-05-03 02:44:00,54.7,49.0,29.90,North,10,3.1,4.0,81,0.00,,,0.00,VWS V14.00,2013-05-03 06:44:00,
2013-05-03 02:49:00,54.7,49.3,29.90,North,8,2.2,2.2,82,0.00,,,0.00,VWS V14.00,2013-05-03 06:49:00,
2013-05-03 02:54:00,54.7,49.6,29.90,North,2,2.7,2.7,83,0.00,,,0.00,VWS V14.00,2013-05-03 06:54:00,
2013-05-03 03:01:00,54.5,49.8,29.87,North,10,2.2,2.2,84,0.00,,,0.00,VWS V14.00,2013-05-03 07:01:00,
2013-05-03 03:06:00,54.5,49.8,29.87,NNE,17,0.0,0.0,84,0.00,,,0.00,VWS V14.00,2013-05-03 07:06:00,
2013-05-03 03:12:00,54.5,49.8,29.87,NNE,24,2.2,3.6,84,0.00,,,0.00,VWS V14.00,2013-05-03 07:12:00,
2013-05-03 03:17:00,54.5,50.1,29.87,NNE,24,0.0,0.0,85,0.00,,,0.00,VWS V14.00,2013-05-03 07:17:00,
2013-05-03 03:22:00,54.3,49.9,29.87,NNE,24,0.0,0.0,85,0.00,,,0.00,VWS V14.00,2013-05-03 07:22:00,
2013-05-03 03:28:00,54.3,49.9,29.87,NNE,23,3.1,3.1,85,0.00,,,0.00,VWS V14.00,2013-05-03 07:28:00,
2013-05-03 03:33:00,54.3,49.9,29.87,NNE,23,0.0,0.0,85,0.00,,,0.00,VWS V14.00,2013-05-03 07:33:00,
2013-05-03 03:39:00,54.1,49.7,29.87,NNE,23,0.0,0.0,85,0.00,,,0.00,VWS V14.00,2013-05-03 07:39:00,
2013-05-03 03:44:00,54.1,50.0,29.87,NNE,23,0.0,0.0,86,0.00,,,0.00,VWS V14.00,2013-05-03 07:44:00,
2013-05-03 03:49:00,54.1,50.0,29.87,NNE,23,0.0,0.0,86,0.00,,,0.00,VWS V14.00,2013-05-03 07:49:00,
2013-05-03 03:54:00,54.1,50.0,29.87,NNE,23,0.0,0.0,86,0.00,,,0.00,VWS V14.00,2013-05-03 07:54:00,
2013-05-03 04:00:00,54.3,50.5,29.87,NNE,23,2.7,2.7,87,0.00,,,0.00,VWS V14.00,2013-05-03 08:00:00,
2013-05-03 04:05:00,54.3,50.5,29.87,NNE,23,0.0,0.0,87,0.00,,,0.00,VWS V14.00,2013-05-03 08:05:00,
2013-05-03 04:10:00,54.3,50.5,29.87,NNE,23,0.0,0.0,87,0.00,,,0.00,VWS V14.00,2013-05-03 08:10:00,
2013-05-03 04:16:00,54.3,50.5,29.87,NNE,23,0.0,0.0,87,0.00,,,0.00,VWS V14.00,2013-05-03 08:16:00,
2013-05-03 04:22:00,54.5,50.7,29.87,NNE,23,0.0,0.0,87,0.00,,,0.00,VWS V14.00,2013-05-03 08:22:00,
2013-05-03 04:27:00,54.5,50.7,29.87,NNE,23,0.0,0.0,87,0.00,,,0.00,VWS V14.00,2013-05-03 08:27:00,
2013-05-03 04:32:00,54.5,50.7,29.87,NNE,23,0.0,0.0,87,0.00,,,0.00,VWS V14.00,2013-05-03 08:32:00,
2013-05-03 04:38:00,54.5,50.7,29.87,NNE,23,0.0,0.0,87,0.00,,,0.00,VWS V14.00,2013-05-03 08:38:00,
2013-05-03 04:43:00,54.5,50.7,29.87,NNE,23,0.0,0.0,87,0.00,,,0.00,VWS V14.00,2013-05-03 08:43:00,
2013-05-03 04:49:00,54.5,50.7,29.87,NNE,23,0.0,0.0,87,0.00,,,0.00,VWS V14.00,2013-05-03 08:49:00,
2013-05-03 04:55:00,54.5,51.0,29.87,NNE,23,0.0,0.0,88,0.00,,,0.00,VWS V14.00,2013-05-03 08:55:00,
2013-05-03 05:00:00,54.7,51.2,29.87,NNE,23,0.0,0.0,88,0.00,,,0.00,VWS V14.00,2013-05-03 09:00:00,
2013-05-03 05:05:00,54.7,51.2,29.87,NNE,23,0.0,0.0,88,0.00,,,0.00,VWS V14.00,2013-05-03 09:05:00,
2013-05-03 05:10:00,54.7,51.2,29.87,NNE,23,0.0,0.0,88,0.00,,,0.00,VWS V14.00,2013-05-03 09:10:00,
2013-05-03 05:15:00,54.7,51.2,29.87,NNE,23,0.0,0.0,88,0.00,,,0.00,VWS V14.00,2013-05-03 09:15:00,
2013-05-03 05:20:00,54.7,51.2,29.87,NNE,23,0.0,0.0,88,0.00,,,0.00,VWS V14.00,2013-05-03 09:20:00,
2013-05-03 05:25:00,54.7,51.2,29.87,NNE,23,0.0,0.0,88,0.00,,,0.00,VWS V14.00,2013-05-03 09:25:00,
2013-05-03 05:31:00,54.7,51.2,29.87,NNE,23,0.0,0.0,88,0.00,,,0.00,VWS V14.00,2013-05-03 09:31:00,
2013-05-03 05:36:00,54.7,51.2,29.87,NNE,23,0.0,0.0,88,0.00,,,0.00,VWS V14.00,2013-05-03 09:36:00,
2013-05-03 05:41:00,54.7,51.2,29.87,NNE,23,0.0,0.0,88,0.00,,,0.00,VWS V14.00,2013-05-03 09:41:00,
2013-05-03 05:47:00,54.7,50.9,29.87,NNE,23,0.0,0.0,87,0.00,,,0.00,VWS V14.00,2013-05-03 09:47:00,
2013-05-03 05:52:00,54.7,50.9,29.87,NNE,23,0.0,0.0,87,0.00,,,0.00,VWS V14.00,2013-05-03 09:52:00,
2013-05-03 05:57:00,54.7,50.9,29.87,NNE,23,0.0,0.0,87,0.00,,,0.00,VWS V14.00,2013-05-03 09:57:00,
2013-05-03 06:03:00,54.5,50.7,29.87,NNE,23,0.0,0.0,87,0.00,,,0.00,VWS V14.00,2013-05-03 10:03:00,
2013-05-03 06:09:00,54.5,50.7,29.87,NNE,23,0.0,0.0,87,0.00,,,0.00,VWS V14.00,2013-05-03 10:09:00,
2013-05-03 06:15:00,54.5,50.7,29.87,NNE,23,0.0,0.0,87,0.00,,,0.00,VWS V14.00,2013-05-03 10:15:00,
2013-05-03 06:21:00,54.5,51.0,29.87,NNE,23,0.0,0.0,88,0.00,,,0.00,VWS V14.00,2013-05-03 10:21:00,
2013-05-03 06:26:00,54.5,51.0,29.87,NNE,23,0.0,0.0,88,0.00,,,0.00,VWS V14.00,2013-05-03 10:26:00,
2013-05-03 06:31:00,54.5,51.0,29.84,NNE,23,0.0,0.0,88,0.00,,,0.00,VWS V14.00,2013-05-03 10:31:00,
2013-05-03 06:37:00,54.7,51.2,29.84,NNE,23,0.0,0.0,88,0.00,,,0.00,VWS V14.00,2013-05-03 10:37:00,
2013-05-03 06:42:00,54.7,51.2,29.84,NNE,23,0.0,0.0,88,0.00,,,0.00,VWS V14.00,2013-05-03 10:42:00,
2013-05-03 06:47:00,54.7,51.2,29.84,NNE,23,0.0,0.0,88,0.00,,,0.00,VWS V14.00,2013-05-03 10:47:00,
2013-05-03 06:52:00,54.9,51.4,29.84,NNE,23,0.0,0.0,88,0.00,,,0.00,VWS V14.00,2013-05-03 10:52:00,
2013-05-03 06:58:00,55.0,51.6,29.87,NNE,23,0.0,0.0,88,0.00,,,0.00,VWS V14.00,2013-05-03 10:58:00,
2013-05-03 07:04:00,55.2,52.0,29.87,NNE,23,0.0,0.0,89,0.00,,,0.00,VWS V14.00,2013-05-03 11:04:00,
2013-05-03 07:10:00,55.6,52.1,29.87,NNE,23,0.0,0.0,88,0.00,,,0.00,VWS V14.00,2013-05-03 11:10:00,
2013-05-03 07:15:00,55.9,52.4,29.87,NNE,23,0.0,0.0,88,0.00,,,0.00,VWS V14.00,2013-05-03 11:15:00,
2013-05-03 07:21:00,56.3,52.8,29.87,NNE,23,0.0,0.0,88,0.00,,,0.00,VWS V14.00,2013-05-03 11:21:00,
2013-05-03 07:26:00,56.7,52.8,29.87,NNE,23,0.0,0.0,87,0.00,,,0.00,VWS V14.00,2013-05-03 11:26:00,
2013-05-03 07:31:00,56.8,53.0,29.87,NNE,23,0.0,0.0,87,0.00,,,0.00,VWS V14.00,2013-05-03 11:31:00,
2013-05-03 07:37:00,57.6,52.8,29.87,NNE,23,0.0,0.0,84,0.00,,,0.00,VWS V14.00,2013-05-03 11:37:00,
2013-05-03 07:42:00,58.1,53.0,29.87,WNW,296,3.1,3.1,83,0.00,,,0.00,VWS V14.00,2013-05-03 11:42:00,
2013-05-03 07:48:00,58.5,53.0,29.87,WNW,289,3.1,3.1,82,0.00,,,0.00,VWS V14.00,2013-05-03 11:48:00,
2013-05-03 07:53:00,58.8,52.7,29.87,WNW,299,2.7,2.7,80,0.00,,,0.00,VWS V14.00,2013-05-03 11:53:00,
2013-05-03 07:58:00,59.0,52.5,29.87,NW,308,2.2,2.2,79,0.00,,,0.00,VWS V14.00,2013-05-03 11:58:00,
2013-05-03 08:03:00,59.4,51.8,29.87,WNW,294,2.7,2.7,76,0.00,,,0.00,VWS V14.00,2013-05-03 12:03:00,
2013-05-03 08:08:00,59.7,52.2,29.87,West,281,2.2,2.2,76,0.00,,,0.00,VWS V14.00,2013-05-03 12:08:00,
2013-05-03 08:13:00,59.9,52.0,29.87,WNW,303,0.0,2.2,75,0.00,,,0.00,VWS V14.00,2013-05-03 12:13:00,
2013-05-03 08:18:00,60.1,52.1,29.87,NW,311,0.0,0.0,75,0.00,,,0.00,VWS V14.00,2013-05-03 12:18:00,
2013-05-03 08:24:00,60.1,52.1,29.87,NW,311,0.0,0.0,75,0.00,,,0.00,VWS V14.00,2013-05-03 12:24:00,
2013-05-03 08:29:00,60.4,52.1,29.87,NNW,331,0.0,0.0,74,0.00,,,0.00,VWS V14.00,2013-05-03 12:29:00,
2013-05-03 08:35:00,60.8,52.1,29.87,West,266,0.0,0.0,73,0.00,,,0.00,VWS V14.00,2013-05-03 12:35:00,
2013-05-03 08:41:00,61.0,52.3,29.87,WNW,282,0.0,0.0,73,0.00,,,0.00,VWS V14.00,2013-05-03 12:41:00,
2013-05-03 08:46:00,61.3,52.6,29.87,WSW,238,0.0,2.7,73,0.00,,,0.00,VWS V14.00,2013-05-03 12:46:00,
2013-05-03 08:51:00,61.5,52.8,29.87,WNW,286,2.7,2.7,73,0.00,,,0.00,VWS V14.00,2013-05-03 12:51:00,
2013-05-03 08:56:00,61.7,52.6,29.87,West,260,0.0,3.1,72,0.00,,,0.00,VWS V14.00,2013-05-03 12:56:00,
2013-05-03 09:01:00,62.1,52.9,29.87,West,268,2.7,2.7,72,0.00,,,0.00,VWS V14.00,2013-05-03 13:01:00,
2013-05-03 09:06:00,62.4,53.3,29.87,WNW,299,2.2,2.2,72,0.00,,,0.00,VWS V14.00,2013-05-03 13:06:00,
2013-05-03 09:13:00,62.8,53.2,29.84,WSW,239,2.7,2.7,71,0.00,,,0.00,VWS V14.00,2013-05-03 13:13:00,
2013-05-03 09:19:00,63.1,53.2,29.84,WNW,298,0.0,0.0,70,0.00,,,0.00,VWS V14.00,2013-05-03 13:19:00,
2013-05-03 09:24:00,63.9,53.9,29.84,West,280,2.7,3.1,70,0.00,,,0.00,VWS V14.00,2013-05-03 13:24:00,
2013-05-03 09:29:00,64.2,54.2,29.84,North,3,2.7,2.7,70,0.00,,,0.00,VWS V14.00,2013-05-03 13:29:00,
2013-05-03 09:34:00,64.8,54.4,29.84,East,94,3.1,3.6,69,0.00,,,0.00,VWS V14.00,2013-05-03 13:34:00,
2013-05-03 09:39:00,65.5,54.7,29.84,WSW,251,3.1,3.1,68,0.00,,,0.00,VWS V14.00,2013-05-03 13:39:00,
2013-05-03 09:44:00,65.7,54.4,29.84,WNW,282,2.2,3.1,67,0.00,,,0.00,VWS V14.00,2013-05-03 13:44:00,
2013-05-03 09:49:00,66.0,54.8,29.84,NNW,332,2.2,2.2,67,0.00,,,0.00,VWS V14.00,2013-05-03 13:49:00,
2013-05-03 09:55:00,66.9,55.6,29.84,NE,36,2.2,2.2,67,0.00,,,0.00,VWS V14.00,2013-05-03 13:55:00,
2013-05-03 10:01:00,67.3,55.1,29.84,North,0,0.0,2.7,65,0.00,,,0.00,VWS V14.00,2013-05-03 14:01:00,
2013-05-03 10:06:00,67.6,55.5,29.84,West,272,2.2,2.2,65,0.00,,,0.00,VWS V14.00,2013-05-03 14:06:00,
2013-05-03 10:12:00,68.0,55.4,29.84,WSW,253,2.7,2.7,64,0.00,,,0.00,VWS V14.00,2013-05-03 14:12:00,
2013-05-03 10:17:00,68.5,55.5,29.84,West,270,2.2,2.2,63,0.00,,,0.00,VWS V14.00,2013-05-03 14:17:00,
2013-05-03 10:22:00,68.7,55.6,29.84,WNW,295,4.0,4.0,63,0.00,,,0.00,VWS V14.00,2013-05-03 14:22:00,
2013-05-03 10:27:00,69.1,55.5,29.84,North,8,3.1,3.1,62,0.00,,,0.00,VWS V14.00,2013-05-03 14:27:00,
2013-05-03 10:32:00,69.3,55.7,29.84,NNW,340,2.7,2.7,62,0.00,,,0.00,VWS V14.00,2013-05-03 14:32:00,
2013-05-03 10:37:00,69.6,55.6,29.84,North,7,3.1,3.1,61,0.00,,,0.00,VWS V14.00,2013-05-03 14:37:00,
2013-05-03 10:43:00,69.8,55.3,29.84,NW,307,2.7,3.6,60,0.00,,,0.00,VWS V14.00,2013-05-03 14:43:00,
2013-05-03 10:48:00,70.2,55.2,29.84,NNW,330,2.7,2.7,59,0.00,,,0.00,VWS V14.00,2013-05-03 14:48:00,
2013-05-03 10:54:00,70.3,55.8,29.84,NW,325,0.0,2.7,60,0.00,,,0.00,VWS V14.00,2013-05-03 14:54:00,
2013-05-03 11:00:00,70.7,56.6,29.84,NW,320,2.7,2.7,61,0.00,,,0.00,VWS V14.00,2013-05-03 15:00:00,
2013-05-03 11:05:00,71.6,56.1,29.84,SSW,209,2.2,2.2,58,0.00,,,0.00,VWS V14.00,2013-05-03 15:05:00,
2013-05-03 11:10:00,72.1,56.6,29.84,SE,145,0.0,0.0,58,0.00,,,0.00,VWS V14.00,2013-05-03 15:10:00,
2013-05-03 11:15:00,72.1,56.6,29.84,NE,43,3.1,3.6,58,0.00,,,0.00,VWS V14.00,2013-05-03 15:15:00,
2013-05-03 11:20:00,73.0,55.9,29.84,NNW,333,0.0,2.7,55,0.00,,,0.00,VWS V14.00,2013-05-03 15:20:00,
2013-05-03 11:25:00,73.0,55.9,29.84,NNW,345,0.0,0.0,55,0.00,,,0.00,VWS V14.00,2013-05-03 15:25:00,
2013-05-03 11:32:00,73.0,55.9,29.84,WSW,248,2.7,2.7,55,0.00,,,0.00,VWS V14.00,2013-05-03 15:32:00,
2013-05-03 11:37:00,73.9,56.3,29.84,SSW,207,0.0,2.7,54,0.00,,,0.00,VWS V14.00,2013-05-03 15:37:00,
2013-05-03 11:42:00,74.1,54.9,29.84,South,172,2.2,2.2,51,0.00,,,0.00,VWS V14.00,2013-05-03 15:42:00,
2013-05-03 11:48:00,74.7,55.3,29.84,SSW,196,2.7,3.6,51,0.00,,,0.00,VWS V14.00,2013-05-03 15:48:00,
2013-05-03 11:53:00,75.0,55.7,29.84,WNW,297,3.6,3.6,51,0.00,,,0.00,VWS V14.00,2013-05-03 15:53:00,
2013-05-03 12:00:00,75.6,57.2,29.84,North,357,2.7,2.7,53,0.00,,,0.00,VWS V14.00,2013-05-03 16:00:00,
2013-05-03 12:05:00,76.1,56.7,29.84,North,5,3.6,3.6,51,0.00,,,0.00,VWS V14.00,2013-05-03 16:05:00,
2013-05-03 12:11:00,76.3,54.6,29.84,SSW,203,4.9,4.9,47,0.00,,,0.00,VWS V14.00,2013-05-03 16:11:00,
2013-05-03 12:16:00,76.1,54.4,29.84,South,181,3.1,3.6,47,0.00,,,0.00,VWS V14.00,2013-05-03 16:16:00,
2013-05-03 12:22:00,76.1,55.0,29.84,SW,219,5.4,5.4,48,0.00,,,0.00,VWS V14.00,2013-05-03 16:22:00,
2013-05-03 12:27:00,76.5,54.8,29.84,WSW,252,3.6,4.0,47,0.00,,,0.00,VWS V14.00,2013-05-03 16:27:00,
2013-05-03 12:33:00,76.5,55.3,29.84,SSE,164,3.1,3.1,48,0.00,,,0.00,VWS V14.00,2013-05-03 16:33:00,
2013-05-03 12:38:00,77.5,55.2,29.84,WNW,287,6.3,6.3,46,0.00,,,0.00,VWS V14.00,2013-05-03 16:38:00,
2013-05-03 12:43:00,77.5,55.2,29.81,SW,218,4.0,4.0,46,0.00,,,0.00,VWS V14.00,2013-05-03 16:43:00,
2013-05-03 12:48:00,78.4,52.8,29.81,SSW,201,7.6,7.6,41,0.00,,,0.00,VWS V14.00,2013-05-03 16:48:00,
2013-05-03 12:53:00,78.4,52.8,29.81,North,349,4.0,4.5,41,0.00,,,0.00,VWS V14.00,2013-05-03 16:53:00,
2013-05-03 12:59:00,78.4,52.8,29.81,NNE,12,3.6,4.9,41,0.00,,,0.00,VWS V14.00,2013-05-03 16:59:00,
2013-05-03 13:04:00,78.4,54.1,29.81,NNE,12,3.6,3.6,43,0.00,,,0.00,VWS V14.00,2013-05-03 17:04:00,
2013-05-03 13:09:00,78.8,52.5,29.81,SSE,154,5.8,5.8,40,0.00,,,0.00,VWS V14.00,2013-05-03 17:09:00,
2013-05-03 13:15:00,78.8,52.5,29.81,ESE,115,5.8,5.8,40,0.00,,,0.00,VWS V14.00,2013-05-03 17:15:00,
2013-05-03 13:20:00,79.7,54.6,29.81,ESE,109,2.2,5.8,42,0.00,,,0.00,VWS V14.00,2013-05-03 17:20:00,
2013-05-03 13:25:00,80.2,55.7,29.81,SSE,162,4.9,4.9,43,0.00,,,0.00,VWS V14.00,2013-05-03 17:25:00,
2013-05-03 13:32:00,81.1,55.2,29.81,North,357,2.7,2.7,41,0.00,,,0.00,VWS V14.00,2013-05-03 17:32:00,
2013-05-03 13:38:00,81.3,56.1,29.81,NNW,335,4.0,4.0,42,0.00,,,0.00,VWS V14.00,2013-05-03 17:38:00,
2013-05-03 13:43:00,81.3,54.7,29.81,ESE,119,4.9,5.4,40,0.00,,,0.00,VWS V14.00,2013-05-03 17:43:00,
2013-05-03 13:48:00,81.0,53.0,29.81,NNW,345,3.1,3.1,38,0.00,,,0.00,VWS V14.00,2013-05-03 17:48:00,
2013-05-03 13:53:00,80.2,50.1,29.81,SSW,209,4.0,5.4,35,0.00,,,0.00,VWS V14.00,2013-05-03 17:53:00,
2013-05-03 13:59:00,80.4,52.5,29.81,SW,225,8.3,8.3,38,0.00,,,0.00,VWS V14.00,2013-05-03 17:59:00,
2013-05-03 14:04:00,81.1,53.9,29.81,SSE,165,9.2,9.2,39,0.00,,,0.00,VWS V14.00,2013-05-03 18:04:00,
2013-05-03 14:10:00,82.4,52.0,29.81,West,279,3.6,3.6,35,0.00,,,0.00,VWS V14.00,2013-05-03 18:10:00,
2013-05-03 14:15:00,82.6,53.0,29.78,NNE,25,3.6,3.6,36,0.00,,,0.00,VWS V14.00,2013-05-03 18:15:00,
2013-05-03 14:20:00,82.4,52.8,29.78,North,6,4.9,4.9,36,0.00,,,0.00,VWS V14.00,2013-05-03 18:20:00,
2013-05-03 14:25:00,82.6,55.1,29.78,SW,222,2.7,2.7,39,0.00,,,0.00,VWS V14.00,2013-05-03 18:25:00,
2013-05-03 14:31:00,82.6,54.4,29.81,NW,311,5.8,5.8,38,0.00,,,0.00,VWS V14.00,2013-05-03 18:31:00,
2013-05-03 14:37:00,83.1,53.4,29.81,NNW,346,2.7,2.7,36,0.00,,,0.00,VWS V14.00,2013-05-03 18:37:00,
2013-05-03 14:42:00,82.9,53.3,29.81,West,264,2.7,2.7,36,0.00,,,0.00,VWS V14.00,2013-05-03 18:42:00,
2013-05-03 14:47:00,82.8,53.1,29.81,North,0,0.0,0.0,36,0.00,,,0.00,VWS V14.00,2013-05-03 18:47:00,
2013-05-03 14:53:00,82.4,53.5,29.81,North,3,3.1,3.1,37,0.00,,,0.00,VWS V14.00,2013-05-03 18:53:00,
2013-05-03 14:58:00,82.0,53.2,29.81,WSW,248,0.0,3.1,37,0.00,,,0.00,VWS V14.00,2013-05-03 18:58:00,
2013-05-03 15:03:00,81.7,51.4,29.78,NW,326,3.1,3.1,35,0.00,,,0.00,VWS V14.00,2013-05-03 19:03:00,
2013-05-03 15:10:00,81.5,51.2,29.78,East,96,2.2,4.9,35,0.00,,,0.00,VWS V14.00,2013-05-03 19:10:00,
2013-05-03 15:16:00,82.4,52.8,29.78,WSW,251,3.6,3.6,36,0.00,,,0.00,VWS V14.00,2013-05-03 19:16:00,
2013-05-03 15:21:00,83.3,52.8,29.78,WSW,252,3.1,3.1,35,0.00,,,0.00,VWS V14.00,2013-05-03 19:21:00,
2013-05-03 15:27:00,83.8,52.5,29.78,WSW,254,2.2,2.2,34,0.00,,,0.00,VWS V14.00,2013-05-03 19:27:00,
2013-05-03 15:32:00,84.0,52.7,29.78,NW,306,2.2,2.2,34,0.00,,,0.00,VWS V14.00,2013-05-03 19:32:00,
2013-05-03 15:38:00,84.0,51.0,29.78,WNW,286,2.7,2.7,32,0.00,,,0.00,VWS V14.00,2013-05-03 19:38:00,
2013-05-03 15:44:00,84.0,50.2,29.78,West,274,5.4,5.4,31,0.00,,,0.00,VWS V14.00,2013-05-03 19:44:00,
2013-05-03 15:51:00,84.4,50.5,29.78,SSW,197,3.6,5.8,31,0.00,,,0.00,VWS V14.00,2013-05-03 19:51:00,
2013-05-03 15:56:00,84.6,50.6,29.78,SSW,197,3.6,3.6,31,0.00,,,0.00,VWS V14.00,2013-05-03 19:56:00,
2013-05-03 16:01:00,84.7,50.8,29.78,NW,320,2.7,2.7,31,0.00,,,0.00,VWS V14.00,2013-05-03 20:01:00,
2013-05-03 16:06:00,84.9,50.9,29.75,ESE,112,2.7,3.6,31,0.00,,,0.00,VWS V14.00,2013-05-03 20:06:00,
2013-05-03 16:11:00,84.6,49.8,29.75,WSW,258,3.6,6.3,30,0.00,,,0.00,VWS V14.00,2013-05-03 20:11:00,
2013-05-03 16:16:00,84.0,50.2,29.78,North,357,2.7,5.4,31,0.00,,,0.00,VWS V14.00,2013-05-03 20:16:00,
2013-05-03 16:22:00,83.7,49.8,29.78,North,353,3.1,3.1,31,0.00,,,0.00,VWS V14.00,2013-05-03 20:22:00,
2013-05-03 16:27:00,83.1,50.2,29.78,SSE,151,6.3,6.3,32,0.00,,,0.00,VWS V14.00,2013-05-03 20:27:00,
2013-05-03 16:51:00,80.2,47.7,29.78,NW,326,6.3,6.3,32,0.00,,,0.00,VWS V14.00,2013-05-03 20:51:00,
2013-05-03 16:57:00,79.9,47.4,29.78,NNE,22,0.0,0.0,32,0.00,,,0.00,VWS V14.00,2013-05-03 20:57:00,
2013-05-03 17:02:00,80.2,50.9,29.78,WNW,297,5.8,5.8,36,0.00,,,0.00,VWS V14.00,2013-05-03 21:02:00,
2013-05-03 17:07:00,79.9,54.8,29.78,WSW,257,2.7,2.7,42,0.00,,,0.00,VWS V14.00,2013-05-03 21:07:00,
2013-05-03 17:12:00,79.2,54.1,29.78,WSW,247,3.1,3.1,42,0.00,,,0.00,VWS V14.00,2013-05-03 21:12:00,
2013-05-03 17:18:00,78.8,54.4,29.78,WSW,240,3.6,4.0,43,0.00,,,0.00,VWS V14.00,2013-05-03 21:18:00,
2013-05-03 17:23:00,78.1,54.4,29.78,NNW,344,3.1,3.1,44,0.00,,,0.00,VWS V14.00,2013-05-03 21:23:00,
2013-05-03 17:28:00,77.2,53.6,29.78,WSW,244,3.1,3.1,44,0.00,,,0.00,VWS V14.00,2013-05-03 21:28:00,
2013-05-03 17:33:00,76.5,54.2,29.78,NW,308,0.0,5.8,46,0.00,,,0.00,VWS V14.00,2013-05-03 21:33:00,
2013-05-03 17:39:00,76.1,54.4,29.78,West,268,4.9,4.9,47,0.00,,,0.00,VWS V14.00,2013-05-03 21:39:00,
2013-05-03 17:44:00,75.6,54.5,29.78,West,262,3.6,3.6,48,0.00,,,0.00,VWS V14.00,2013-05-03 21:44:00,
2013-05-03 17:49:00,75.4,54.3,29.78,West,259,3.6,3.6,48,0.00,,,0.00,VWS V14.00,2013-05-03 21:49:00,
2013-05-03 17:54:00,75.2,54.2,29.78,NW,326,0.0,0.0,48,0.00,,,0.00,VWS V14.00,2013-05-03 21:54:00,
2013-05-03 17:59:00,75.0,54.6,29.78,West,275,3.1,3.1,49,0.00,,,0.00,VWS V14.00,2013-05-03 21:59:00,
2013-05-03 18:05:00,75.0,54.6,29.78,West,277,3.1,3.1,49,0.00,,,0.00,VWS V14.00,2013-05-03 22:05:00,
2013-05-03 18:10:00,75.0,55.1,29.78,West,265,2.2,2.2,50,0.00,,,0.00,VWS V14.00,2013-05-03 22:10:00,
2013-05-03 18:15:00,74.7,55.3,29.78,SW,220,3.1,4.0,51,0.00,,,0.00,VWS V14.00,2013-05-03 22:15:00,
2013-05-03 18:20:00,74.3,55.6,29.78,West,265,3.1,3.1,52,0.00,,,0.00,VWS V14.00,2013-05-03 22:20:00,
2013-05-03 18:25:00,73.9,55.8,29.78,West,274,4.9,4.9,53,0.00,,,0.00,VWS V14.00,2013-05-03 22:25:00,
2013-05-03 18:31:00,73.4,55.8,29.81,WSW,241,4.0,4.0,54,0.00,,,0.00,VWS V14.00,2013-05-03 22:31:00,
2013-05-03 18:36:00,73.0,55.9,29.81,SW,220,2.2,2.7,55,0.00,,,0.00,VWS V14.00,2013-05-03 22:36:00,
2013-05-03 18:42:00,72.7,55.6,29.81,West,269,0.0,2.2,55,0.00,,,0.00,VWS V14.00,2013-05-03 22:42:00,
2013-05-03 18:47:00,72.3,55.3,29.81,West,260,2.2,2.2,55,0.00,,,0.00,VWS V14.00,2013-05-03 22:47:00,
2013-05-03 18:52:00,72.3,55.8,29.81,NW,316,2.7,3.1,56,0.00,,,0.00,VWS V14.00,2013-05-03 22:52:00,
2013-05-03 18:58:00,72.0,55.4,29.81,WSW,247,6.3,6.3,56,0.00,,,0.00,VWS V14.00,2013-05-03 22:58:00,
2013-05-03 19:03:00,71.4,55.4,29.81,NNW,337,3.1,4.9,57,0.00,,,0.00,VWS V14.00,2013-05-03 23:03:00,
2013-05-03 19:08:00,71.2,55.2,29.81,SW,224,2.7,3.1,57,0.00,,,0.00,VWS V14.00,2013-05-03 23:08:00,
2013-05-03 19:13:00,71.1,55.5,29.81,NW,310,3.1,3.1,58,0.00,,,0.00,VWS V14.00,2013-05-03 23:13:00,
2013-05-03 19:18:00,70.9,55.4,29.81,WNW,302,0.0,3.1,58,0.00,,,0.00,VWS V14.00,2013-05-03 23:18:00,
2013-05-03 19:23:00,70.7,55.2,29.81,NW,313,2.7,2.7,58,0.00,,,0.00,VWS V14.00,2013-05-03 23:23:00,
2013-05-03 19:29:00,70.5,55.0,29.81,NW,312,0.0,2.7,58,0.00,,,0.00,VWS V14.00,2013-05-03 23:29:00,
2013-05-03 19:34:00,70.5,55.5,29.81,WNW,302,2.7,2.7,59,0.00,,,0.00,VWS V14.00,2013-05-03 23:34:00,
2013-05-03 19:39:00,70.3,55.3,29.81,NNW,336,2.7,2.7,59,0.00,,,0.00,VWS V14.00,2013-05-03 23:39:00,
2013-05-03 19:46:00,70.2,55.6,29.81,North,0,2.7,3.6,60,0.00,,,0.00,VWS V14.00,2013-05-03 23:46:00,
2013-05-03 19:51:00,70.0,55.5,29.81,NW,325,0.0,0.0,60,0.00,,,0.00,VWS V14.00,2013-05-03 23:51:00,
2013-05-03 19:56:00,70.0,55.9,29.81,SW,217,3.1,3.1,61,0.00,,,0.00,VWS V14.00,2013-05-03 23:56:00,
2013-05-03 20:01:00,69.6,56.0,29.81,SW,217,3.1,3.1,62,0.00,,,0.00,VWS V14.00,2013-05-04 00:01:00,
2013-05-03 20:07:00,69.6,56.0,29.81,SW,217,0.0,0.0,62,0.00,,,0.00,VWS V14.00,2013-05-04 00:07:00,
2013-05-03 20:12:00,69.4,55.9,29.81,SW,217,0.0,0.0,62,0.00,,,0.00,VWS V14.00,2013-05-04 00:12:00,
2013-05-03 20:18:00,69.4,55.9,29.81,SW,217,0.0,0.0,62,0.00,,,0.00,VWS V14.00,2013-05-04 00:18:00,
2013-05-03 20:24:00,69.3,55.7,29.81,SW,217,0.0,0.0,62,0.00,,,0.00,VWS V14.00,2013-05-04 00:24:00,
2013-05-03 20:29:00,69.1,56.0,29.81,North,1,2.7,2.7,63,0.00,,,0.00,VWS V14.00,2013-05-04 00:29:00,
2013-05-03 20:34:00,68.9,56.2,29.81,North,1,0.0,2.2,64,0.00,,,0.00,VWS V14.00,2013-05-04 00:34:00,
2013-05-03 20:39:00,68.7,56.1,29.81,North,1,0.0,0.0,64,0.00,,,0.00,VWS V14.00,2013-05-04 00:39:00,
2013-05-03 20:44:00,68.5,55.9,29.81,North,1,2.2,2.2,64,0.00,,,0.00,VWS V14.00,2013-05-04 00:44:00,
2013-05-03 20:50:00,68.4,56.2,29.81,North,1,0.0,0.0,65,0.00,,,0.00,VWS V14.00,2013-05-04 00:50:00,
2013-05-03 20:56:00,68.2,56.0,29.81,North,1,0.0,0.0,65,0.00,,,0.00,VWS V14.00,2013-05-04 00:56:00,
2013-05-03 21:02:00,68.0,55.8,29.81,North,1,0.0,0.0,65,0.00,,,0.00,VWS V14.00,2013-05-04 01:02:00,
2013-05-03 21:07:00,67.6,55.9,29.81,North,1,0.0,0.0,66,0.00,,,0.00,VWS V14.00,2013-05-04 01:07:00,
2013-05-03 21:13:00,67.5,56.1,29.81,North,1,0.0,0.0,67,0.00,,,0.00,VWS V14.00,2013-05-04 01:13:00,
2013-05-03 21:20:00,67.1,55.8,29.81,North,1,0.0,0.0,67,0.00,,,0.00,VWS V14.00,2013-05-04 01:20:00,
2013-05-03 21:25:00,66.9,55.6,29.81,North,1,0.0,0.0,67,0.00,,,0.00,VWS V14.00,2013-05-04 01:25:00,
2013-05-03 21:30:00,66.7,55.8,29.81,North,1,0.0,0.0,68,0.00,,,0.00,VWS V14.00,2013-05-04 01:30:00,
2013-05-03 21:36:00,66.4,55.9,29.84,North,1,0.0,0.0,69,0.00,,,0.00,VWS V14.00,2013-05-04 01:36:00,
2013-05-03 21:42:00,66.2,55.7,29.84,North,1,0.0,0.0,69,0.00,,,0.00,VWS V14.00,2013-05-04 01:42:00,
2013-05-03 22:01:00,65.3,54.5,0.00,North,1,0.0,0.0,68,0.00,,,0.00,VWS V14.00,2013-05-04 02:01:00,
2013-05-03 22:03:00,65.3,54.5,0.00,North,1,0.0,0.0,68,0.00,,,0.00,VWS V14.00,2013-05-04 02:03:00,
2013-05-03 22:04:00,65.3,54.1,0.00,North,1,0.0,0.0,67,0.00,,,0.00,VWS V14.00,2013-05-04 02:04:00,
2013-05-03 22:05:00,65.3,53.7,0.00,North,1,0.0,0.0,66,0.00,,,0.00,VWS V14.00,2013-05-04 02:05:00,
2013-05-03 22:06:00,65.3,52.8,0.00,NW,324,3.6,3.6,64,0.00,,,0.00,VWS V14.00,2013-05-04 02:06:00,
2013-05-03 22:07:00,65.3,50.6,0.00,NNW,346,2.7,3.6,59,0.00,,,0.00,VWS V14.00,2013-05-04 02:07:00,
2013-05-03 22:08:00,65.3,51.1,0.00,WSW,238,3.1,3.1,60,0.00,,,0.00,VWS V14.00,2013-05-04 02:08:00,
2013-05-03 22:12:00,65.8,47.7,0.00,West,263,3.6,3.6,52,0.00,,,0.00,VWS V14.00,2013-05-04 02:12:00,
2013-05-03 22:18:00,66.2,44.2,0.00,SSW,212,3.1,3.1,45,0.00,,,0.00,VWS V14.00,2013-05-04 02:18:00,
2013-05-03 22:24:00,66.6,43.4,0.00,SW,234,2.7,2.7,43,0.00,,,0.00,VWS V14.00,2013-05-04 02:24:00,
2013-05-03 22:29:00,66.7,41.7,0.00,WSW,241,3.1,3.6,40,0.00,,,0.00,VWS V14.00,2013-05-04 02:29:00,
2013-05-03 22:35:00,66.9,39.8,29.84,West,271,3.1,3.1,37,0.00,,,0.00,VWS V14.00,2013-05-04 02:35:00,
2013-05-03 22:41:00,67.1,38.6,29.84,SSW,210,2.7,3.6,35,0.00,,,0.00,VWS V14.00,2013-05-04 02:41:00,
2013-05-03 22:46:00,67.3,38.0,29.84,NW,306,5.8,5.8,34,0.00,,,0.00,VWS V14.00,2013-05-04 02:46:00,
2013-05-03 22:52:00,67.5,37.4,29.84,WNW,284,2.7,4.0,33,0.00,,,0.00,VWS V14.00,2013-05-04 02:52:00,
2013-05-03 22:57:00,67.3,37.2,29.84,WNW,300,2.7,2.7,33,0.00,,,0.00,VWS V14.00,2013-05-04 02:57:00,
2013-05-03 23:03:00,67.3,37.2,29.84,West,278,2.2,2.7,33,0.00,,,0.00,VWS V14.00,2013-05-04 03:03:00,
2013-05-03 23:09:00,67.1,37.1,29.84,West,279,2.2,3.6,33,0.00,,,0.00,VWS V14.00,2013-05-04 03:09:00,
2013-05-03 23:14:00,67.1,37.1,29.84,ENE,71,2.7,3.6,33,0.00,,,0.00,VWS V14.00,2013-05-04 03:14:00,
2013-05-03 23:20:00,66.9,36.1,29.84,West,277,2.2,6.3,32,0.00,,,0.00,VWS V14.00,2013-05-04 03:20:00,
2013-05-03 23:26:00,66.9,36.9,29.84,NNE,24,2.7,4.9,33,0.00,,,0.00,VWS V14.00,2013-05-04 03:26:00,
2013-05-03 23:31:00,66.7,36.8,29.84,West,277,2.2,2.2,33,0.00,,,0.00,VWS V14.00,2013-05-04 03:31:00,
2013-05-03 23:37:00,66.6,36.6,29.84,WNW,297,2.7,2.7,33,0.00,,,0.00,VWS V14.00,2013-05-04 03:37:00,
2013-05-03 23:42:00,66.2,36.3,29.84,West,263,3.1,4.5,33,0.00,,,0.00,VWS V14.00,2013-05-04 03:42:00,
2013-05-03 23:48:00,66.2,36.3,29.84,WNW,287,2.7,2.7,33,0.00,,,0.00,VWS V14.00,2013-05-04 03:48:00,
2013-05-03 23:53:00,66.0,36.9,29.84,NNW,329,2.2,3.6,34,0.00,,,0.00,VWS V14.00,2013-05-04 03:53:00,
2013-05-03 23:59:00,66.0,36.9,29.84,WNW,296,0.0,2.2,34,0.00,,,0.00,VWS V14.00,2013-05-04 03:59:00,